sensor_id;sensor_type;location;lat;lon;timestamp;P1;durP1;ratioP1;P2;durP2;ratioP2
27632;SDS011;15046;50.930;13.334;2023-08-31T00:00:42;6.45;;;3.88;;
27632;SDS011;15046;50.930;13.334;2023-08-31T00:03:09;8.82;;;4.45;;
27632;SDS011;15046;50.930;13.334;2023-08-31T00:05:41;7.45;;;4.13;;
27632;SDS011;15046;50.930;13.334;2023-08-31T00:08:08;5.80;;;4.28;;
27632;SDS011;15046;50.930;13.334;2023-08-31T00:10:36;6.60;;;4.22;;
27632;SDS011;15046;50.930;13.334;2023-08-31T00:13:02;6.72;;;4.30;;
27632;SDS011;15046;50.930;13.334;2023-08-31T00:15:29;7.85;;;4.30;;
27632;SDS011;15046;50.930;13.334;2023-08-31T00:17:57;6.55;;;3.95;;
27632;SDS011;15046;50.930;13.334;2023-08-31T00:20:24;6.22;;;4.50;;
27632;SDS011;15046;50.930;13.334;2023-08-31T00:22:50;8.73;;;5.03;;
27632;SDS011;15046;50.930;13.334;2023-08-31T00:25:15;7.97;;;5.25;;
27632;SDS011;15046;50.930;13.334;2023-08-31T00:27:41;7.05;;;5.03;;
27632;SDS011;15046;50.930;13.334;2023-08-31T00:30:07;6.75;;;4.47;;
27632;SDS011;15046;50.930;13.334;2023-08-31T00:32:36;5.82;;;4.53;;
27632;SDS011;15046;50.930;13.334;2023-08-31T00:35:02;8.82;;;5.05;;
27632;SDS011;15046;50.930;13.334;2023-08-31T00:37:29;6.50;;;4.28;;
27632;SDS011;15046;50.930;13.334;2023-08-31T00:39:54;8.52;;;4.72;;
27632;SDS011;15046;50.930;13.334;2023-08-31T00:42:20;7.13;;;4.20;;
27632;SDS011;15046;50.930;13.334;2023-08-31T00:44:46;6.25;;;4.38;;
27632;SDS011;15046;50.930;13.334;2023-08-31T00:47:13;5.65;;;3.70;;
27632;SDS011;15046;50.930;13.334;2023-08-31T00:49:40;6.50;;;4.38;;
27632;SDS011;15046;50.930;13.334;2023-08-31T00:52:06;5.57;;;3.30;;
27632;SDS011;15046;50.930;13.334;2023-08-31T00:54:32;4.68;;;3.33;;
27632;SDS011;15046;50.930;13.334;2023-08-31T00:56:59;5.07;;;3.30;;
27632;SDS011;15046;50.930;13.334;2023-08-31T00:59:25;6.32;;;3.70;;
27632;SDS011;15046;50.930;13.334;2023-08-31T01:07:27;4.35;;;2.30;;
27632;SDS011;15046;50.930;13.334;2023-08-31T01:12:54;4.45;;;2.45;;
27632;SDS011;15046;50.930;13.334;2023-08-31T01:15:30;3.55;;;2.15;;
27632;SDS011;15046;50.930;13.334;2023-08-31T01:17:57;4.18;;;2.30;;
27632;SDS011;15046;50.930;13.334;2023-08-31T01:20:30;4.18;;;2.15;;
27632;SDS011;15046;50.930;13.334;2023-08-31T01:23:02;4.07;;;2.10;;
27632;SDS011;15046;50.930;13.334;2023-08-31T01:25:40;4.15;;;2.60;;
27632;SDS011;15046;50.930;13.334;2023-08-31T01:28:08;4.97;;;1.92;;
27632;SDS011;15046;50.930;13.334;2023-08-31T01:33:20;3.40;;;2.15;;
27632;SDS011;15046;50.930;13.334;2023-08-31T01:35:46;4.22;;;2.35;;
27632;SDS011;15046;50.930;13.334;2023-08-31T01:38:18;4.55;;;2.20;;
27632;SDS011;15046;50.930;13.334;2023-08-31T01:40:51;4.20;;;2.30;;
27632;SDS011;15046;50.930;13.334;2023-08-31T01:43:30;7.57;;;2.45;;
27632;SDS011;15046;50.930;13.334;2023-08-31T01:45:58;3.97;;;2.03;;
27632;SDS011;15046;50.930;13.334;2023-08-31T01:48:25;4.05;;;2.42;;
27632;SDS011;15046;50.930;13.334;2023-08-31T01:50:50;5.30;;;2.50;;
27632;SDS011;15046;50.930;13.334;2023-08-31T01:53:16;3.65;;;2.05;;
27632;SDS011;15046;50.930;13.334;2023-08-31T01:55:42;3.97;;;2.30;;
27632;SDS011;15046;50.930;13.334;2023-08-31T01:58:08;5.30;;;2.80;;
27632;SDS011;15046;50.930;13.334;2023-08-31T02:00:33;4.88;;;2.88;;
27632;SDS011;15046;50.930;13.334;2023-08-31T02:03:00;4.55;;;2.60;;
27632;SDS011;15046;50.930;13.334;2023-08-31T02:05:26;4.55;;;2.92;;
27632;SDS011;15046;50.930;13.334;2023-08-31T02:07:52;4.70;;;2.88;;
27632;SDS011;15046;50.930;13.334;2023-08-31T02:10:18;4.43;;;2.90;;
27632;SDS011;15046;50.930;13.334;2023-08-31T02:12:44;4.20;;;2.75;;
27632;SDS011;15046;50.930;13.334;2023-08-31T02:15:09;5.78;;;2.80;;
27632;SDS011;15046;50.930;13.334;2023-08-31T02:17:35;7.88;;;2.90;;
27632;SDS011;15046;50.930;13.334;2023-08-31T02:20:01;5.72;;;3.40;;
27632;SDS011;15046;50.930;13.334;2023-08-31T02:22:31;5.93;;;3.35;;
27632;SDS011;15046;50.930;13.334;2023-08-31T02:24:59;5.85;;;3.58;;
27632;SDS011;15046;50.930;13.334;2023-08-31T02:27:26;4.57;;;3.08;;
27632;SDS011;15046;50.930;13.334;2023-08-31T02:29:52;6.10;;;2.97;;
27632;SDS011;15046;50.930;13.334;2023-08-31T02:32:18;5.15;;;3.33;;
27632;SDS011;15046;50.930;13.334;2023-08-31T02:34:44;9.70;;;3.85;;
27632;SDS011;15046;50.930;13.334;2023-08-31T02:37:10;4.45;;;2.75;;
27632;SDS011;15046;50.930;13.334;2023-08-31T02:39:36;5.80;;;3.33;;
27632;SDS011;15046;50.930;13.334;2023-08-31T02:42:02;8.38;;;3.05;;
27632;SDS011;15046;50.930;13.334;2023-08-31T02:44:30;4.90;;;3.22;;
27632;SDS011;15046;50.930;13.334;2023-08-31T02:46:56;5.38;;;3.00;;
27632;SDS011;15046;50.930;13.334;2023-08-31T02:49:22;5.75;;;3.22;;
27632;SDS011;15046;50.930;13.334;2023-08-31T02:51:48;6.13;;;3.17;;
27632;SDS011;15046;50.930;13.334;2023-08-31T02:54:14;5.20;;;3.20;;
27632;SDS011;15046;50.930;13.334;2023-08-31T02:56:40;4.78;;;3.38;;
27632;SDS011;15046;50.930;13.334;2023-08-31T02:59:06;5.38;;;3.45;;
27632;SDS011;15046;50.930;13.334;2023-08-31T03:01:32;5.45;;;3.67;;
27632;SDS011;15046;50.930;13.334;2023-08-31T03:03:58;6.88;;;4.13;;
27632;SDS011;15046;50.930;13.334;2023-08-31T03:06:25;5.63;;;3.60;;
27632;SDS011;15046;50.930;13.334;2023-08-31T03:08:51;6.72;;;3.30;;
27632;SDS011;15046;50.930;13.334;2023-08-31T03:11:16;7.85;;;3.85;;
27632;SDS011;15046;50.930;13.334;2023-08-31T03:13:42;5.32;;;3.15;;
27632;SDS011;15046;50.930;13.334;2023-08-31T03:16:08;5.55;;;3.40;;
27632;SDS011;15046;50.930;13.334;2023-08-31T03:18:34;4.53;;;3.15;;
27632;SDS011;15046;50.930;13.334;2023-08-31T03:20:59;5.05;;;3.55;;
27632;SDS011;15046;50.930;13.334;2023-08-31T03:23:26;5.65;;;3.42;;
27632;SDS011;15046;50.930;13.334;2023-08-31T03:25:52;6.32;;;3.53;;
27632;SDS011;15046;50.930;13.334;2023-08-31T03:28:18;5.70;;;3.67;;
27632;SDS011;15046;50.930;13.334;2023-08-31T03:30:45;6.82;;;4.40;;
27632;SDS011;15046;50.930;13.334;2023-08-31T03:33:11;5.82;;;3.47;;
27632;SDS011;15046;50.930;13.334;2023-08-31T03:35:37;7.07;;;4.55;;
27632;SDS011;15046;50.930;13.334;2023-08-31T03:38:03;5.38;;;3.63;;
27632;SDS011;15046;50.930;13.334;2023-08-31T03:40:29;5.28;;;3.60;;
27632;SDS011;15046;50.930;13.334;2023-08-31T03:42:56;5.15;;;3.47;;
27632;SDS011;15046;50.930;13.334;2023-08-31T03:45:21;4.68;;;3.17;;
27632;SDS011;15046;50.930;13.334;2023-08-31T03:47:47;5.88;;;3.67;;
27632;SDS011;15046;50.930;13.334;2023-08-31T03:50:13;5.30;;;3.50;;
27632;SDS011;15046;50.930;13.334;2023-08-31T03:52:38;4.90;;;3.15;;
27632;SDS011;15046;50.930;13.334;2023-08-31T03:55:04;6.95;;;3.90;;
27632;SDS011;15046;50.930;13.334;2023-08-31T03:57:30;8.30;;;3.65;;
27632;SDS011;15046;50.930;13.334;2023-08-31T03:59:56;6.18;;;3.80;;
27632;SDS011;15046;50.930;13.334;2023-08-31T04:02:21;4.68;;;3.25;;
27632;SDS011;15046;50.930;13.334;2023-08-31T04:04:48;6.00;;;3.55;;
27632;SDS011;15046;50.930;13.334;2023-08-31T04:07:14;4.20;;;3.00;;
27632;SDS011;15046;50.930;13.334;2023-08-31T04:09:40;5.13;;;3.58;;
27632;SDS011;15046;50.930;13.334;2023-08-31T04:12:05;6.22;;;3.78;;
27632;SDS011;15046;50.930;13.334;2023-08-31T04:14:31;6.32;;;3.72;;
27632;SDS011;15046;50.930;13.334;2023-08-31T04:16:57;5.65;;;3.80;;
27632;SDS011;15046;50.930;13.334;2023-08-31T04:19:23;6.25;;;3.90;;
27632;SDS011;15046;50.930;13.334;2023-08-31T04:21:48;5.35;;;3.90;;
27632;SDS011;15046;50.930;13.334;2023-08-31T04:24:14;5.53;;;3.67;;
27632;SDS011;15046;50.930;13.334;2023-08-31T04:26:40;5.88;;;3.67;;
27632;SDS011;15046;50.930;13.334;2023-08-31T04:29:06;4.85;;;3.40;;
27632;SDS011;15046;50.930;13.334;2023-08-31T04:31:32;6.50;;;4.10;;
27632;SDS011;15046;50.930;13.334;2023-08-31T04:33:58;7.18;;;4.10;;
27632;SDS011;15046;50.930;13.334;2023-08-31T04:36:23;7.53;;;4.47;;
27632;SDS011;15046;50.930;13.334;2023-08-31T04:38:50;6.10;;;4.53;;
27632;SDS011;15046;50.930;13.334;2023-08-31T04:41:16;7.70;;;4.65;;
27632;SDS011;15046;50.930;13.334;2023-08-31T04:43:42;8.07;;;4.60;;
27632;SDS011;15046;50.930;13.334;2023-08-31T04:46:08;6.20;;;4.43;;
27632;SDS011;15046;50.930;13.334;2023-08-31T04:48:35;7.35;;;4.72;;
27632;SDS011;15046;50.930;13.334;2023-08-31T04:51:01;8.20;;;4.70;;
27632;SDS011;15046;50.930;13.334;2023-08-31T04:53:29;7.20;;;4.35;;
27632;SDS011;15046;50.930;13.334;2023-08-31T04:55:55;9.48;;;4.78;;
27632;SDS011;15046;50.930;13.334;2023-08-31T04:58:21;7.45;;;4.65;;
27632;SDS011;15046;50.930;13.334;2023-08-31T05:00:47;6.90;;;4.28;;
27632;SDS011;15046;50.930;13.334;2023-08-31T05:03:13;7.78;;;4.22;;
27632;SDS011;15046;50.930;13.334;2023-08-31T05:05:39;7.15;;;4.40;;
27632;SDS011;15046;50.930;13.334;2023-08-31T05:08:07;6.72;;;3.92;;
27632;SDS011;15046;50.930;13.334;2023-08-31T05:10:34;5.70;;;4.00;;
27632;SDS011;15046;50.930;13.334;2023-08-31T05:13:00;6.80;;;3.90;;
27632;SDS011;15046;50.930;13.334;2023-08-31T05:15:25;7.80;;;3.85;;
27632;SDS011;15046;50.930;13.334;2023-08-31T05:17:55;8.10;;;3.90;;
27632;SDS011;15046;50.930;13.334;2023-08-31T05:20:21;6.60;;;3.40;;
27632;SDS011;15046;50.930;13.334;2023-08-31T05:22:50;6.30;;;3.33;;
27632;SDS011;15046;50.930;13.334;2023-08-31T05:25:16;6.88;;;2.92;;
27632;SDS011;15046;50.930;13.334;2023-08-31T05:27:41;7.60;;;3.60;;
27632;SDS011;15046;50.930;13.334;2023-08-31T05:30:07;5.22;;;2.85;;
27632;SDS011;15046;50.930;13.334;2023-08-31T05:32:34;5.82;;;3.60;;
27632;SDS011;15046;50.930;13.334;2023-08-31T05:35:00;5.97;;;3.28;;
27632;SDS011;15046;50.930;13.334;2023-08-31T05:37:25;5.45;;;3.28;;
27632;SDS011;15046;50.930;13.334;2023-08-31T05:39:51;5.10;;;3.28;;
27632;SDS011;15046;50.930;13.334;2023-08-31T05:42:17;5.97;;;3.53;;
27632;SDS011;15046;50.930;13.334;2023-08-31T05:44:43;5.78;;;3.95;;
27632;SDS011;15046;50.930;13.334;2023-08-31T05:47:09;8.90;;;4.18;;
27632;SDS011;15046;50.930;13.334;2023-08-31T05:49:35;7.35;;;4.65;;
27632;SDS011;15046;50.930;13.334;2023-08-31T05:52:01;11.32;;;5.25;;
27632;SDS011;15046;50.930;13.334;2023-08-31T05:54:27;7.78;;;4.40;;
27632;SDS011;15046;50.930;13.334;2023-08-31T05:56:53;8.43;;;5.10;;
27632;SDS011;15046;50.930;13.334;2023-08-31T05:59:18;8.30;;;5.25;;
27632;SDS011;15046;50.930;13.334;2023-08-31T06:01:44;7.82;;;4.65;;
27632;SDS011;15046;50.930;13.334;2023-08-31T06:04:10;7.55;;;4.38;;
27632;SDS011;15046;50.930;13.334;2023-08-31T06:06:36;12.85;;;5.22;;
27632;SDS011;15046;50.930;13.334;2023-08-31T06:09:02;6.80;;;4.18;;
27632;SDS011;15046;50.930;13.334;2023-08-31T06:11:29;7.13;;;4.50;;
27632;SDS011;15046;50.930;13.334;2023-08-31T06:13:55;8.25;;;4.60;;
27632;SDS011;15046;50.930;13.334;2023-08-31T06:16:21;7.03;;;4.32;;
27632;SDS011;15046;50.930;13.334;2023-08-31T06:18:47;9.95;;;4.45;;
27632;SDS011;15046;50.930;13.334;2023-08-31T06:21:13;7.18;;;3.97;;
27632;SDS011;15046;50.930;13.334;2023-08-31T06:23:39;9.35;;;4.35;;
27632;SDS011;15046;50.930;13.334;2023-08-31T06:26:05;7.70;;;4.28;;
27632;SDS011;15046;50.930;13.334;2023-08-31T06:28:30;5.55;;;3.53;;
27632;SDS011;15046;50.930;13.334;2023-08-31T06:30:56;7.50;;;3.55;;
27632;SDS011;15046;50.930;13.334;2023-08-31T06:33:22;6.13;;;4.05;;
27632;SDS011;15046;50.930;13.334;2023-08-31T06:35:47;7.85;;;4.43;;
27632;SDS011;15046;50.930;13.334;2023-08-31T06:38:16;6.20;;;3.95;;
27632;SDS011;15046;50.930;13.334;2023-08-31T06:40:42;5.97;;;3.58;;
27632;SDS011;15046;50.930;13.334;2023-08-31T06:43:08;6.75;;;4.13;;
27632;SDS011;15046;50.930;13.334;2023-08-31T06:45:34;6.22;;;3.42;;
27632;SDS011;15046;50.930;13.334;2023-08-31T06:48:00;6.22;;;3.55;;
27632;SDS011;15046;50.930;13.334;2023-08-31T06:50:26;5.68;;;3.70;;
27632;SDS011;15046;50.930;13.334;2023-08-31T06:52:52;6.43;;;3.92;;
27632;SDS011;15046;50.930;13.334;2023-08-31T06:55:17;8.35;;;3.72;;
27632;SDS011;15046;50.930;13.334;2023-08-31T06:57:43;6.13;;;3.95;;
27632;SDS011;15046;50.930;13.334;2023-08-31T07:00:10;8.45;;;4.10;;
27632;SDS011;15046;50.930;13.334;2023-08-31T07:02:39;7.50;;;4.47;;
27632;SDS011;15046;50.930;13.334;2023-08-31T07:05:06;5.70;;;4.00;;
27632;SDS011;15046;50.930;13.334;2023-08-31T07:07:32;6.07;;;4.22;;
27632;SDS011;15046;50.930;13.334;2023-08-31T07:09:58;6.78;;;4.07;;
27632;SDS011;15046;50.930;13.334;2023-08-31T07:12:24;5.47;;;3.70;;
27632;SDS011;15046;50.930;13.334;2023-08-31T07:14:50;8.85;;;4.30;;
27632;SDS011;15046;50.930;13.334;2023-08-31T07:17:19;7.65;;;4.47;;
27632;SDS011;15046;50.930;13.334;2023-08-31T07:19:45;7.35;;;3.63;;
27632;SDS011;15046;50.930;13.334;2023-08-31T07:22:11;6.88;;;4.07;;
27632;SDS011;15046;50.930;13.334;2023-08-31T07:24:37;7.05;;;3.95;;
27632;SDS011;15046;50.930;13.334;2023-08-31T07:27:02;12.75;;;4.45;;
27632;SDS011;15046;50.930;13.334;2023-08-31T07:29:29;6.70;;;3.53;;
27632;SDS011;15046;50.930;13.334;2023-08-31T07:31:55;9.48;;;4.28;;
27632;SDS011;15046;50.930;13.334;2023-08-31T07:34:20;5.95;;;3.40;;
27632;SDS011;15046;50.930;13.334;2023-08-31T07:36:46;13.27;;;4.90;;
27632;SDS011;15046;50.930;13.334;2023-08-31T07:39:12;8.38;;;4.00;;
27632;SDS011;15046;50.930;13.334;2023-08-31T07:41:37;9.30;;;3.80;;
27632;SDS011;15046;50.930;13.334;2023-08-31T07:44:03;6.78;;;3.30;;
27632;SDS011;15046;50.930;13.334;2023-08-31T07:46:30;7.78;;;3.83;;
27632;SDS011;15046;50.930;13.334;2023-08-31T07:48:56;6.75;;;3.33;;
27632;SDS011;15046;50.930;13.334;2023-08-31T07:51:22;6.43;;;2.95;;
27632;SDS011;15046;50.930;13.334;2023-08-31T07:53:49;5.72;;;3.33;;
27632;SDS011;15046;50.930;13.334;2023-08-31T07:56:15;7.63;;;3.35;;
27632;SDS011;15046;50.930;13.334;2023-08-31T07:58:41;6.68;;;3.22;;
27632;SDS011;15046;50.930;13.334;2023-08-31T08:01:06;6.93;;;3.28;;
27632;SDS011;15046;50.930;13.334;2023-08-31T08:03:32;5.53;;;3.17;;
27632;SDS011;15046;50.930;13.334;2023-08-31T08:05:59;5.13;;;3.20;;
27632;SDS011;15046;50.930;13.334;2023-08-31T08:08:25;6.85;;;3.35;;
27632;SDS011;15046;50.930;13.334;2023-08-31T08:10:53;7.28;;;4.15;;
27632;SDS011;15046;50.930;13.334;2023-08-31T08:13:20;9.43;;;3.93;;
27632;SDS011;15046;50.930;13.334;2023-08-31T08:15:46;7.18;;;4.03;;
27632;SDS011;15046;50.930;13.334;2023-08-31T08:18:12;7.18;;;4.22;;
27632;SDS011;15046;50.930;13.334;2023-08-31T08:20:38;8.63;;;3.70;;
27632;SDS011;15046;50.930;13.334;2023-08-31T08:23:04;5.50;;;3.30;;
27632;SDS011;15046;50.930;13.334;2023-08-31T08:25:31;7.25;;;3.83;;
27632;SDS011;15046;50.930;13.334;2023-08-31T08:27:57;5.63;;;3.67;;
27632;SDS011;15046;50.930;13.334;2023-08-31T08:30:23;6.38;;;3.53;;
27632;SDS011;15046;50.930;13.334;2023-08-31T08:32:48;5.15;;;3.08;;
27632;SDS011;15046;50.930;13.334;2023-08-31T08:35:14;6.40;;;3.53;;
27632;SDS011;15046;50.930;13.334;2023-08-31T08:37:40;8.93;;;3.90;;
27632;SDS011;15046;50.930;13.334;2023-08-31T08:40:07;5.07;;;3.10;;
27632;SDS011;15046;50.930;13.334;2023-08-31T08:42:36;5.70;;;3.00;;
27632;SDS011;15046;50.930;13.334;2023-08-31T08:45:07;5.35;;;2.85;;
27632;SDS011;15046;50.930;13.334;2023-08-31T08:47:38;5.55;;;2.63;;
27632;SDS011;15046;50.930;13.334;2023-08-31T08:50:05;5.65;;;2.63;;
27632;SDS011;15046;50.930;13.334;2023-08-31T08:52:32;5.88;;;2.78;;
27632;SDS011;15046;50.930;13.334;2023-08-31T08:54:58;6.70;;;2.80;;
27632;SDS011;15046;50.930;13.334;2023-08-31T08:57:26;4.57;;;2.63;;
27632;SDS011;15046;50.930;13.334;2023-08-31T08:59:51;5.22;;;2.40;;
27632;SDS011;15046;50.930;13.334;2023-08-31T09:02:17;4.53;;;2.75;;
27632;SDS011;15046;50.930;13.334;2023-08-31T09:04:43;4.78;;;2.70;;
27632;SDS011;15046;50.930;13.334;2023-08-31T09:07:09;6.47;;;2.95;;
27632;SDS011;15046;50.930;13.334;2023-08-31T09:09:51;5.28;;;2.40;;
27632;SDS011;15046;50.930;13.334;2023-08-31T09:12:17;3.95;;;2.00;;
27632;SDS011;15046;50.930;13.334;2023-08-31T09:14:56;3.58;;;2.10;;
27632;SDS011;15046;50.930;13.334;2023-08-31T09:17:25;5.43;;;2.22;;
27632;SDS011;15046;50.930;13.334;2023-08-31T09:20:01;5.40;;;2.10;;
27632;SDS011;15046;50.930;13.334;2023-08-31T09:22:31;5.90;;;2.13;;
27632;SDS011;15046;50.930;13.334;2023-08-31T09:24:58;7.78;;;3.00;;
27632;SDS011;15046;50.930;13.334;2023-08-31T09:27:24;5.00;;;2.30;;
27632;SDS011;15046;50.930;13.334;2023-08-31T09:29:50;6.10;;;2.90;;
27632;SDS011;15046;50.930;13.334;2023-08-31T09:32:19;7.53;;;2.58;;
27632;SDS011;15046;50.930;13.334;2023-08-31T09:34:45;8.57;;;3.63;;
27632;SDS011;15046;50.930;13.334;2023-08-31T09:37:12;4.25;;;2.28;;
27632;SDS011;15046;50.930;13.334;2023-08-31T09:39:40;3.78;;;2.28;;
27632;SDS011;15046;50.930;13.334;2023-08-31T09:42:07;5.07;;;2.42;;
27632;SDS011;15046;50.930;13.334;2023-08-31T09:44:33;5.35;;;2.63;;
27632;SDS011;15046;50.930;13.334;2023-08-31T09:46:59;5.45;;;2.42;;
27632;SDS011;15046;50.930;13.334;2023-08-31T09:49:25;5.68;;;2.33;;
27632;SDS011;15046;50.930;13.334;2023-08-31T09:51:52;4.53;;;2.40;;
27632;SDS011;15046;50.930;13.334;2023-08-31T09:54:18;5.35;;;2.38;;
27632;SDS011;15046;50.930;13.334;2023-08-31T09:56:47;4.25;;;1.85;;
27632;SDS011;15046;50.930;13.334;2023-08-31T09:59:13;3.33;;;1.85;;
27632;SDS011;15046;50.930;13.334;2023-08-31T10:01:40;4.28;;;1.60;;
27632;SDS011;15046;50.930;13.334;2023-08-31T10:04:08;3.50;;;1.98;;
27632;SDS011;15046;50.930;13.334;2023-08-31T10:06:34;3.75;;;2.22;;
27632;SDS011;15046;50.930;13.334;2023-08-31T10:09:03;4.47;;;2.20;;
27632;SDS011;15046;50.930;13.334;2023-08-31T10:11:30;4.25;;;2.50;;
27632;SDS011;15046;50.930;13.334;2023-08-31T10:13:56;4.55;;;2.10;;
27632;SDS011;15046;50.930;13.334;2023-08-31T10:16:25;4.78;;;2.30;;
27632;SDS011;15046;50.930;13.334;2023-08-31T10:18:55;6.15;;;2.53;;
27632;SDS011;15046;50.930;13.334;2023-08-31T10:21:21;5.32;;;2.42;;
27632;SDS011;15046;50.930;13.334;2023-08-31T10:23:48;6.10;;;2.42;;
27632;SDS011;15046;50.930;13.334;2023-08-31T10:28:50;4.32;;;2.22;;
27632;SDS011;15046;50.930;13.334;2023-08-31T10:31:17;4.85;;;2.08;;
27632;SDS011;15046;50.930;13.334;2023-08-31T10:33:43;5.18;;;2.47;;
27632;SDS011;15046;50.930;13.334;2023-08-31T10:38:41;5.35;;;2.83;;
27632;SDS011;15046;50.930;13.334;2023-08-31T10:43:45;6.55;;;3.50;;
27632;SDS011;15046;50.930;13.334;2023-08-31T10:46:19;5.68;;;3.33;;
27632;SDS011;15046;50.930;13.334;2023-08-31T10:51:23;5.60;;;1.70;;
27632;SDS011;15046;50.930;13.334;2023-08-31T10:53:49;3.60;;;2.00;;
27632;SDS011;15046;50.930;13.334;2023-08-31T10:56:16;4.63;;;2.13;;
27632;SDS011;15046;50.930;13.334;2023-08-31T10:58:42;2.83;;;1.33;;
27632;SDS011;15046;50.930;13.334;2023-08-31T11:01:50;4.57;;;1.45;;
27632;SDS011;15046;50.930;13.334;2023-08-31T11:04:28;3.45;;;1.70;;
27632;SDS011;15046;50.930;13.334;2023-08-31T11:09:43;3.03;;;1.30;;
27632;SDS011;15046;50.930;13.334;2023-08-31T11:12:10;5.90;;;1.40;;
27632;SDS011;15046;50.930;13.334;2023-08-31T11:14:37;5.13;;;1.42;;
27632;SDS011;15046;50.930;13.334;2023-08-31T11:17:04;43.58;;;2.80;;
27632;SDS011;15046;50.930;13.334;2023-08-31T11:19:31;2.55;;;1.60;;
27632;SDS011;15046;50.930;13.334;2023-08-31T11:21:58;3.65;;;1.70;;
27632;SDS011;15046;50.930;13.334;2023-08-31T11:24:27;7.65;;;2.33;;
27632;SDS011;15046;50.930;13.334;2023-08-31T11:26:53;3.70;;;1.60;;
27632;SDS011;15046;50.930;13.334;2023-08-31T11:29:19;2.92;;;1.50;;
27632;SDS011;15046;50.930;13.334;2023-08-31T11:31:44;2.75;;;1.58;;
27632;SDS011;15046;50.930;13.334;2023-08-31T11:34:12;5.18;;;1.50;;
27632;SDS011;15046;50.930;13.334;2023-08-31T11:36:40;2.40;;;1.20;;
27632;SDS011;15046;50.930;13.334;2023-08-31T11:39:08;3.13;;;1.60;;
27632;SDS011;15046;50.930;13.334;2023-08-31T11:41:35;2.92;;;1.63;;
27632;SDS011;15046;50.930;13.334;2023-08-31T11:44:05;5.90;;;2.08;;
27632;SDS011;15046;50.930;13.334;2023-08-31T11:46:32;2.70;;;1.40;;
27632;SDS011;15046;50.930;13.334;2023-08-31T11:48:59;3.55;;;1.55;;
27632;SDS011;15046;50.930;13.334;2023-08-31T11:51:25;5.75;;;1.40;;
27632;SDS011;15046;50.930;13.334;2023-08-31T11:53:54;3.85;;;1.60;;
27632;SDS011;15046;50.930;13.334;2023-08-31T11:56:23;2.95;;;1.30;;
27632;SDS011;15046;50.930;13.334;2023-08-31T11:58:50;3.50;;;1.75;;
27632;SDS011;15046;50.930;13.334;2023-08-31T12:01:20;4.47;;;1.30;;
27632;SDS011;15046;50.930;13.334;2023-08-31T12:03:46;3.28;;;1.52;;
27632;SDS011;15046;50.930;13.334;2023-08-31T12:06:18;2.53;;;1.30;;
27632;SDS011;15046;50.930;13.334;2023-08-31T12:08:44;3.22;;;1.40;;
27632;SDS011;15046;50.930;13.334;2023-08-31T12:11:10;2.03;;;1.48;;
27632;SDS011;15046;50.930;13.334;2023-08-31T12:13:37;6.43;;;1.65;;
27632;SDS011;15046;50.930;13.334;2023-08-31T12:16:03;3.85;;;1.45;;
27632;SDS011;15046;50.930;13.334;2023-08-31T12:18:32;3.05;;;1.30;;
27632;SDS011;15046;50.930;13.334;2023-08-31T12:21:02;3.42;;;1.50;;
27632;SDS011;15046;50.930;13.334;2023-08-31T12:23:29;3.38;;;1.30;;
27632;SDS011;15046;50.930;13.334;2023-08-31T12:25:55;3.33;;;1.35;;
27632;SDS011;15046;50.930;13.334;2023-08-31T12:28:22;5.43;;;1.60;;
27632;SDS011;15046;50.930;13.334;2023-08-31T12:30:54;3.88;;;2.05;;
27632;SDS011;15046;50.930;13.334;2023-08-31T12:33:23;3.92;;;1.60;;
27632;SDS011;15046;50.930;13.334;2023-08-31T12:35:49;2.97;;;1.50;;
27632;SDS011;15046;50.930;13.334;2023-08-31T12:38:15;3.33;;;1.13;;
27632;SDS011;15046;50.930;13.334;2023-08-31T12:40:41;5.13;;;1.30;;
27632;SDS011;15046;50.930;13.334;2023-08-31T12:43:07;5.32;;;1.50;;
27632;SDS011;15046;50.930;13.334;2023-08-31T12:45:34;3.47;;;1.30;;
27632;SDS011;15046;50.930;13.334;2023-08-31T12:48:01;2.35;;;1.30;;
27632;SDS011;15046;50.930;13.334;2023-08-31T12:50:28;2.47;;;1.10;;
27632;SDS011;15046;50.930;13.334;2023-08-31T12:52:55;3.78;;;1.30;;
27632;SDS011;15046;50.930;13.334;2023-08-31T12:55:20;2.55;;;1.30;;
27632;SDS011;15046;50.930;13.334;2023-08-31T12:57:46;4.72;;;1.48;;
27632;SDS011;15046;50.930;13.334;2023-08-31T13:00:14;3.65;;;1.40;;
27632;SDS011;15046;50.930;13.334;2023-08-31T13:02:40;2.33;;;1.30;;
27632;SDS011;15046;50.930;13.334;2023-08-31T13:05:07;4.00;;;1.55;;
27632;SDS011;15046;50.930;13.334;2023-08-31T13:07:37;4.10;;;1.45;;
27632;SDS011;15046;50.930;13.334;2023-08-31T13:10:04;6.60;;;2.20;;
27632;SDS011;15046;50.930;13.334;2023-08-31T13:12:30;5.40;;;1.90;;
27632;SDS011;15046;50.930;13.334;2023-08-31T13:14:57;3.53;;;1.52;;
27632;SDS011;15046;50.930;13.334;2023-08-31T13:17:24;2.95;;;1.60;;
27632;SDS011;15046;50.930;13.334;2023-08-31T13:19:53;6.03;;;1.67;;
27632;SDS011;15046;50.930;13.334;2023-08-31T13:22:19;3.55;;;1.63;;
27632;SDS011;15046;50.930;13.334;2023-08-31T13:24:45;7.47;;;2.10;;
27632;SDS011;15046;50.930;13.334;2023-08-31T13:27:11;4.60;;;1.95;;
27632;SDS011;15046;50.930;13.334;2023-08-31T13:29:38;3.47;;;2.00;;
27632;SDS011;15046;50.930;13.334;2023-08-31T13:32:04;5.68;;;1.88;;
27632;SDS011;15046;50.930;13.334;2023-08-31T13:34:31;5.22;;;2.10;;
27632;SDS011;15046;50.930;13.334;2023-08-31T13:36:56;4.30;;;2.00;;
27632;SDS011;15046;50.930;13.334;2023-08-31T13:39:22;5.13;;;2.15;;
27632;SDS011;15046;50.930;13.334;2023-08-31T13:41:51;7.10;;;2.35;;
27632;SDS011;15046;50.930;13.334;2023-08-31T13:44:20;4.30;;;2.00;;
27632;SDS011;15046;50.930;13.334;2023-08-31T13:46:49;24.35;;;7.97;;
27632;SDS011;15046;50.930;13.334;2023-08-31T13:49:15;3.63;;;1.60;;
27632;SDS011;15046;50.930;13.334;2023-08-31T13:51:41;2.80;;;1.70;;
27632;SDS011;15046;50.930;13.334;2023-08-31T13:54:07;7.82;;;2.53;;
27632;SDS011;15046;50.930;13.334;2023-08-31T13:56:33;6.50;;;1.95;;
27632;SDS011;15046;50.930;13.334;2023-08-31T13:59:00;4.72;;;1.98;;
27632;SDS011;15046;50.930;13.334;2023-08-31T14:01:25;5.85;;;2.45;;
27632;SDS011;15046;50.930;13.334;2023-08-31T14:03:52;5.63;;;1.70;;
27632;SDS011;15046;50.930;13.334;2023-08-31T14:06:18;4.20;;;2.42;;
27632;SDS011;15046;50.930;13.334;2023-08-31T14:08:44;4.60;;;2.47;;
27632;SDS011;15046;50.930;13.334;2023-08-31T14:11:10;4.53;;;2.00;;
27632;SDS011;15046;50.930;13.334;2023-08-31T14:13:36;3.72;;;2.03;;
27632;SDS011;15046;50.930;13.334;2023-08-31T14:16:02;5.50;;;2.20;;
27632;SDS011;15046;50.930;13.334;2023-08-31T14:18:28;4.93;;;2.30;;
27632;SDS011;15046;50.930;13.334;2023-08-31T14:20:55;5.78;;;2.42;;
27632;SDS011;15046;50.930;13.334;2023-08-31T14:23:23;5.63;;;2.00;;
27632;SDS011;15046;50.930;13.334;2023-08-31T14:25:48;4.78;;;1.98;;
27632;SDS011;15046;50.930;13.334;2023-08-31T14:28:14;3.85;;;1.80;;
27632;SDS011;15046;50.930;13.334;2023-08-31T14:30:40;4.50;;;1.90;;
27632;SDS011;15046;50.930;13.334;2023-08-31T14:33:06;4.63;;;1.98;;
27632;SDS011;15046;50.930;13.334;2023-08-31T14:35:31;4.22;;;1.83;;
27632;SDS011;15046;50.930;13.334;2023-08-31T14:38:01;3.78;;;1.70;;
27632;SDS011;15046;50.930;13.334;2023-08-31T14:40:27;3.35;;;2.00;;
27632;SDS011;15046;50.930;13.334;2023-08-31T14:42:53;3.25;;;1.63;;
27632;SDS011;15046;50.930;13.334;2023-08-31T14:45:18;6.40;;;1.63;;
27632;SDS011;15046;50.930;13.334;2023-08-31T14:47:44;4.57;;;1.88;;
27632;SDS011;15046;50.930;13.334;2023-08-31T14:50:10;6.20;;;1.90;;
27632;SDS011;15046;50.930;13.334;2023-08-31T14:52:36;3.30;;;1.45;;
27632;SDS011;15046;50.930;13.334;2023-08-31T14:55:02;4.22;;;1.73;;